Time;durP1;ratioP1;P1;durP2;ratioP2;P2;SDS_P1;SDS_P2;PMS_P1;PMS_P2;Temp;Humidity;BMP_temperature;BMP_pressure;BME280_temperature;BME280_humidity;BME280_pressure;Samples;Min_cycle;Max_cycle;Signal;HPM_P1;HPM_P2
2021/07/05 00:00:56;;;;;;;2.80;1.48;;;;;;;13.93;100.00;96540.94;5042950;28;20033;-62
2021/07/05 00:03:21;;;;;;;4.68;1.55;;;;;;;13.89;100.00;96529.94;5029703;28;20899;-62
2021/07/05 00:05:47;;;;;;;3.78;1.33;;;;;;;13.84;100.00;96535.03;5042733;28;20103;-61
2021/07/05 00:08:12;;;;;;;3.05;1.35;;;;;;;13.79;100.00;96522.44;5030691;28;20044;-62
2021/07/05 00:10:38;;;;;;;4.40;1.42;;;;;;;13.76;100.00;96515.78;5033599;28;20439;-62
2021/07/05 00:13:04;;;;;;;5.90;1.90;;;;;;;13.67;100.00;96514.59;5039683;28;20048;-62
2021/07/05 00:15:31;;;;;;;3.75;1.65;;;;;;;13.58;100.00;96503.97;5022602;28;20053;-62
2021/07/05 00:18:00;;;;;;;6.00;2.00;;;;;;;13.52;100.00;96503.56;5023628;28;20042;-62
2021/07/05 00:20:29;;;;;;;13.07;2.95;;;;;;;13.45;100.00;96502.75;5037103;28;20518;-62
2021/07/05 00:22:55;;;;;;;3.05;2.00;;;;;;;13.42;100.00;96511.81;5039667;28;20413;-63
2021/07/05 00:25:21;;;;;;;3.50;2.70;;;;;;;13.38;100.00;96504.31;5032578;28;20124;-63
2021/07/05 00:27:47;;;;;;;4.00;2.10;;;;;;;13.36;100.00;96509.44;5023462;28;20049;-61
2021/07/05 00:30:15;;;;;;;17.95;4.63;;;;;;;13.40;100.00;96517.69;5020170;28;20390;-61
2021/07/05 00:32:41;;;;;;;5.22;1.92;;;;;;;13.46;100.00;96523.59;5023181;28;20482;-63
2021/07/05 00:35:06;;;;;;;4.20;2.58;;;;;;;13.31;100.00;96531.03;5022280;28;20110;-62
2021/07/05 00:37:32;;;;;;;7.38;2.72;;;;;;;13.28;100.00;96523.50;5040857;28;20083;-62
2021/07/05 00:39:57;;;;;;;6.30;2.85;;;;;;;13.28;100.00;96509.75;5022971;28;20490;-62
2021/07/05 00:42:23;;;;;;;3.75;2.67;;;;;;;13.19;100.00;96491.66;5018309;28;20288;-61
2021/07/05 00:44:49;;;;;;;6.07;2.70;;;;;;;13.16;100.00;96488.91;5041528;28;20118;-62
2021/07/05 00:47:15;;;;;;;5.30;2.80;;;;;;;13.06;100.00;96495.16;5027555;28;20520;-62
2021/07/05 00:49:40;;;;;;;6.90;3.38;;;;;;;13.05;100.00;96496.34;5028790;28;20049;-63
2021/07/05 00:52:06;;;;;;;7.65;3.20;;;;;;;13.07;100.00;96496.72;5018162;28;20120;-62
2021/07/05 00:54:32;;;;;;;14.55;3.00;;;;;;;13.05;100.00;96504.56;5035542;28;20047;-63
2021/07/05 00:56:57;;;;;;;6.22;2.90;;;;;;;13.09;100.00;96502.63;5033932;28;20053;-62
2021/07/05 00:59:24;;;;;;;5.43;3.40;;;;;;;13.11;100.00;96508.53;5017710;28;20492;-63
2021/07/05 01:01:50;;;;;;;5.07;3.30;;;;;;;13.15;100.00;96504.63;5034239;28;20520;-63
2021/07/05 01:04:16;;;;;;;5.85;3.22;;;;;;;13.20;100.00;96507.00;5017257;28;20033;-63
2021/07/05 01:06:41;;;;;;;6.43;3.33;;;;;;;13.23;100.00;96497.16;5021717;28;20506;-63
2021/07/05 01:09:07;;;;;;;6.80;2.90;;;;;;;13.23;100.00;96502.66;5016762;28;20434;-63
2021/07/05 01:11:32;;;;;;;8.55;3.22;;;;;;;13.27;100.00;96508.97;5023088;28;20429;-63
2021/07/05 01:13:58;;;;;;;4.97;2.92;;;;;;;13.30;100.00;96502.69;5023213;28;20533;-63
2021/07/05 01:16:23;;;;;;;6.65;3.03;;;;;;;13.32;100.00;96497.59;5017759;28;20874;-63
2021/07/05 01:18:49;;;;;;;6.93;2.78;;;;;;;13.33;100.00;96498.41;5037974;28;20048;-64
2021/07/05 01:21:15;;;;;;;8.45;2.97;;;;;;;13.37;100.00;96491.72;5032388;28;20394;-63
2021/07/05 01:23:40;;;;;;;8.30;2.50;;;;;;;13.36;100.00;96487.41;5038702;28;20041;-62
2021/07/05 01:26:06;;;;;;;6.65;2.90;;;;;;;13.36;100.00;96484.66;5029716;28;20041;-62
2021/07/05 01:28:32;;;;;;;4.47;2.70;;;;;;;13.36;100.00;96475.59;5042026;28;20063;-64
2021/07/05 01:30:57;;;;;;;3.60;2.30;;;;;;;13.39;100.00;96472.09;5024001;28;20038;-62
2021/07/05 01:33:23;;;;;;;9.90;2.47;;;;;;;13.44;100.00;96481.94;5016104;28;20890;-63
2021/07/05 01:35:48;;;;;;;5.05;2.70;;;;;;;13.48;100.00;96480.75;5029600;28;20056;-63
2021/07/05 01:38:20;;;;;;;7.30;2.50;;;;;;;13.53;100.00;96479.59;5036244;28;20049;-63
2021/07/05 01:41:07;;;;;;;4.50;2.53;;;;;;;13.60;100.00;96473.31;5033903;28;20045;-62
2021/07/05 01:43:33;;;;;;;5.60;2.20;;;;;;;13.63;100.00;96475.25;5041248;28;20041;-64
2021/07/05 01:45:58;;;;;;;5.72;2.47;;;;;;;13.64;100.00;96472.13;5043719;28;20371;-63
2021/07/05 01:48:25;;;;;;;4.88;2.10;;;;;;;13.68;100.00;96480.38;5033452;28;20113;-62
2021/07/05 01:50:52;;;;;;;4.72;2.67;;;;;;;13.72;100.00;96481.16;5034184;28;20052;-61
2021/07/05 01:53:19;;;;;;;6.47;2.05;;;;;;;13.70;100.00;96481.56;5033850;28;20068;-61
2021/07/05 01:55:45;;;;;;;2.97;2.05;;;;;;;13.71;100.00;96477.63;5038099;28;20115;-62
2021/07/05 01:58:11;;;;;;;3.78;2.00;;;;;;;13.72;100.00;96468.19;5026000;28;20041;-62
2021/07/05 02:00:41;;;;;;;6.05;2.00;;;;;;;13.77;100.00;96470.56;5035027;28;20115;-64
2021/07/05 02:03:06;;;;;;;5.00;1.90;;;;;;;13.81;100.00;96469.75;5034952;28;20068;-62
2021/07/05 02:05:33;;;;;;;5.88;2.92;;;;;;;13.84;100.00;96467.00;5033017;28;20131;-63
2021/07/05 02:07:58;;;;;;;2.78;1.85;;;;;;;13.86;100.00;96464.63;5041013;28;20045;-63
2021/07/05 02:10:30;;;;;;;5.88;1.83;;;;;;;13.85;100.00;96454.81;5034182;28;20040;-63
2021/07/05 02:12:57;;;;;;;2.50;1.70;;;;;;;13.81;100.00;96459.56;5050430;28;20553;-63
2021/07/05 02:15:24;;;;;;;2.78;1.70;;;;;;;13.83;100.00;96464.63;5015711;28;20049;-63
2021/07/05 02:17:49;;;;;;;11.23;2.10;;;;;;;13.84;100.00;96457.97;5046451;28;20151;-63
2021/07/05 02:20:21;;;;;;;2.80;1.65;;;;;;;13.86;100.00;96453.63;5033945;28;20139;-63
2021/07/05 02:22:50;;;;;;;2.47;1.60;;;;;;;13.96;100.00;96452.84;5042642;28;20041;-62
2021/07/05 02:25:17;;;;;;;4.60;1.58;;;;;;;14.15;100.00;96467.38;5032442;28;20548;-62
2021/07/05 02:27:45;;;;;;;3.25;1.70;;;;;;;14.27;100.00;96474.44;5044591;28;20057;-61
2021/07/05 02:30:17;;;;;;;2.55;1.40;;;;;;;14.26;100.00;96478.38;5028087;28;20049;-62
2021/07/05 02:32:44;;;;;;;2.15;1.15;;;;;;;14.24;100.00;96470.53;5029981;28;20541;-62
2021/07/05 02:35:12;;;;;;;2.63;1.50;;;;;;;14.17;100.00;96466.97;5029480;28;20052;-62
2021/07/05 02:37:38;;;;;;;1.75;1.27;;;;;;;14.09;100.00;96466.22;5042586;28;20114;-62
2021/07/05 02:40:07;;;;;;;3.20;1.42;;;;;;;14.04;100.00;96461.88;5036626;28;20493;-61
2021/07/05 02:42:32;;;;;;;2.30;1.33;;;;;;;14.02;100.00;96460.72;5031164;28;20045;-62
2021/07/05 02:44:58;;;;;;;2.33;1.50;;;;;;;14.10;100.00;96454.81;5036194;28;20577;-62
2021/07/05 02:47:23;;;;;;;2.95;1.40;;;;;;;14.13;100.00;96456.78;5026351;28;20063;-62
2021/07/05 02:49:48;;;;;;;2.42;1.48;;;;;;;14.24;100.00;96451.25;5031269;28;20125;-62
2021/07/05 02:52:14;;;;;;;3.30;1.30;;;;;;;14.19;100.00;96446.13;5034328;28;20068;-63
2021/07/05 02:54:39;;;;;;;2.45;1.30;;;;;;;14.10;100.00;96443.78;5016102;28;20517;-62
2021/07/05 02:57:06;;;;;;;2.55;1.40;;;;;;;14.03;100.00;96446.56;5023880;28;20056;-60
2021/07/05 02:59:31;;;;;;;4.88;1.50;;;;;;;14.04;100.00;96444.56;5038591;28;20728;-61
2021/07/05 03:01:57;;;;;;;2.30;1.45;;;;;;;14.10;100.00;96440.25;5039884;28;20136;-62
2021/07/05 03:04:23;;;;;;;7.22;1.58;;;;;;;14.20;100.00;96442.19;5024894;28;20049;-60
2021/07/05 03:06:48;;;;;;;3.80;1.25;;;;;;;14.22;100.00;96433.53;5035168;28;20107;-61
2021/07/05 03:09:14;;;;;;;2.97;1.20;;;;;;;14.09;100.00;96449.69;5032551;28;20057;-62
2021/07/05 03:11:39;;;;;;;4.90;1.52;;;;;;;14.01;100.00;96459.13;5040046;28;20052;-61
2021/07/05 03:14:06;;;;;;;1.92;1.20;;;;;;;13.95;100.00;96444.97;5035006;28;20078;-61
2021/07/05 03:16:32;;;;;;;4.68;1.73;;;;;;;13.71;100.00;96443.81;5039031;28;20099;-60
2021/07/05 03:18:57;;;;;;;3.65;1.60;;;;;;;13.56;100.00;96443.81;5034379;28;20079;-60
2021/07/05 03:21:22;;;;;;;2.97;1.70;;;;;;;13.50;100.00;96447.34;5028221;28;20519;-61
2021/07/05 03:23:48;;;;;;;3.60;1.58;;;;;;;13.44;100.00;96440.66;5038662;28;20581;-62
2021/07/05 03:26:13;;;;;;;6.30;2.10;;;;;;;13.45;100.00;96451.28;5026619;28;20049;-61
2021/07/05 03:28:39;;;;;;;2.20;1.67;;;;;;;13.47;100.00;96457.19;5031483;28;20045;-62
2021/07/05 03:31:04;;;;;;;3.50;1.40;;;;;;;13.51;100.00;96463.47;5027023;28;20065;-62
2021/07/05 03:33:30;;;;;;;2.53;1.58;;;;;;;13.68;100.00;96464.63;5030042;28;20131;-62
2021/07/05 03:35:55;;;;;;;3.20;1.30;;;;;;;13.87;100.00;96466.22;5039197;28;20041;-62
2021/07/05 03:38:21;;;;;;;1.55;1.30;;;;;;;13.92;100.00;96468.59;5028479;28;20567;-62
2021/07/05 03:40:47;;;;;;;3.67;1.55;;;;;;;13.99;100.00;96472.50;5033777;28;20051;-62
2021/07/05 03:43:13;;;;;;;3.03;1.60;;;;;;;13.91;100.00;96474.47;5034075;28;20041;-61
2021/07/05 03:45:40;;;;;;;3.63;1.30;;;;;;;13.71;100.00;96455.59;5035768;28;20049;-62
2021/07/05 03:48:07;;;;;;;5.93;2.00;;;;;;;13.62;100.00;96452.47;5028115;28;20529;-61
2021/07/05 03:50:34;;;;;;;6.43;1.38;;;;;;;13.48;100.00;96461.47;5027642;28;20073;-61
2021/07/05 03:53:00;;;;;;;2.47;1.65;;;;;;;13.43;100.00;96456.38;5025129;28;20052;-61
2021/07/05 03:55:31;;;;;;;5.13;1.55;;;;;;;13.38;100.00;96451.28;5027021;28;20084;-61
2021/07/05 03:57:57;;;;;;;3.53;1.60;;;;;;;13.39;100.00;96439.84;5039418;28;20124;-61
2021/07/05 04:00:26;;;;;;;3.20;1.85;;;;;;;13.37;100.00;96444.97;5028606;28;20742;-61
2021/07/05 04:02:52;;;;;;;8.13;1.90;;;;;;;13.41;100.00;96438.69;5043081;28;20045;-60
2021/07/05 04:05:18;;;;;;;4.18;1.73;;;;;;;13.45;100.00;96436.72;5025562;28;20056;-62
2021/07/05 04:07:44;;;;;;;2.20;1.50;;;;;;;13.51;100.00;96433.19;5025500;28;20067;-62
2021/07/05 04:10:11;;;;;;;3.15;1.42;;;;;;;13.54;100.00;96420.59;5026419;28;20045;-62
2021/07/05 04:12:37;;;;;;;2.67;1.75;;;;;;;13.67;100.00;96432.03;5039427;28;20044;-61
2021/07/05 04:15:05;;;;;;;2.92;1.50;;;;;;;13.76;100.00;96429.66;5032273;28;20437;-61
2021/07/05 04:17:30;;;;;;;4.90;1.58;;;;;;;14.05;100.00;96435.16;5029682;28;20040;-62
2021/07/05 04:19:56;;;;;;;6.80;1.13;;;;;;;14.39;100.00;96438.22;5037652;28;20075;-61
2021/07/05 04:22:22;;;;;;;2.35;1.02;;;;;;;14.36;100.00;96435.47;5044947;28;20804;-60
2021/07/05 04:24:47;;;;;;;2.13;1.10;;;;;;;14.45;100.00;96442.13;5041369;28;20059;-62
2021/07/05 04:27:15;;;;;;;4.07;0.82;;;;;;;14.56;100.00;96446.81;5037732;28;20041;-61
2021/07/05 04:29:41;;;;;;;2.17;1.30;;;;;;;14.67;100.00;96444.84;5039361;28;20038;-62
2021/07/05 04:32:07;;;;;;;2.20;1.05;;;;;;;14.56;100.00;96439.34;5018865;28;20111;-61
2021/07/05 04:34:33;;;;;;;2.17;1.30;;;;;;;14.41;100.00;96444.09;5037891;28;20037;-62
2021/07/05 04:36:59;;;;;;;3.25;1.17;;;;;;;14.59;100.00;96438.56;5037065;28;20064;-62
2021/07/05 04:39:26;;;;;;;1.42;0.93;;;;;;;14.97;100.00;96427.75;5033509;28;20526;-62
2021/07/05 04:41:52;;;;;;;8.25;1.15;;;;;;;15.43;100.00;96415.66;5026514;28;20092;-61
2021/07/05 04:44:18;;;;;;;2.05;1.00;;;;;;;15.97;99.26;96420.78;5028588;28;20617;-61
2021/07/05 04:46:49;;;;;;;3.35;1.92;;;;;;;16.49;95.94;96425.34;5038503;28;20148;-63
2021/07/05 04:49:18;;;;;;;0.88;0.63;;;;;;;16.70;91.93;96427.09;5034068;28;20131;-63
2021/07/05 04:51:44;;;;;;;8.73;1.30;;;;;;;16.49;92.02;96422.59;5037535;28;20049;-62
2021/07/05 04:54:10;;;;;;;1.65;0.80;;;;;;;16.50;92.33;96437.97;5052637;28;20056;-62
2021/07/05 04:56:35;;;;;;;5.45;1.02;;;;;;;16.60;91.97;96439.84;5049156;28;20064;-62
2021/07/05 04:59:02;;;;;;;1.45;0.70;;;;;;;16.75;91.31;96439.69;5051532;28;20049;-62
2021/07/05 05:01:27;;;;;;;1.38;0.68;;;;;;;16.92;91.01;96446.22;5032023;28;20069;-62
2021/07/05 05:03:53;;;;;;;2.15;0.80;;;;;;;17.06;89.36;96445.25;5037403;28;20442;-62
2021/07/05 05:06:18;;;;;;;2.00;0.88;;;;;;;16.96;88.64;96430.34;5020458;28;20075;-62
2021/07/05 05:08:45;;;;;;;3.30;0.90;;;;;;;16.42;92.20;96423.47;5028825;28;20045;-63
2021/07/05 05:11:10;;;;;;;2.92;0.95;;;;;;;16.03;95.66;96423.88;5028949;28;20045;-62
2021/07/05 05:13:36;;;;;;;1.55;0.90;;;;;;;15.66;97.99;96431.66;5030698;28;20037;-63
2021/07/05 05:16:01;;;;;;;3.80;1.10;;;;;;;15.68;97.27;96429.28;5031768;28;20048;-63
2021/07/05 05:18:27;;;;;;;1.10;0.80;;;;;;;15.33;99.83;96427.56;5035248;28;20048;-61
2021/07/05 05:20:54;;;;;;;2.78;0.85;;;;;;;15.25;100.00;96435.09;5040070;28;20043;-62
2021/07/05 05:23:19;;;;;;;2.20;1.10;;;;;;;14.88;100.00;96413.63;5033032;28;20052;-62
2021/07/05 05:25:45;;;;;;;8.15;1.90;;;;;;;14.79;100.00;96414.06;5034358;28;20099;-64
2021/07/05 05:28:10;;;;;;;6.57;1.20;;;;;;;14.90;100.00;96416.78;5033686;28;20037;-60
2021/07/05 05:30:36;;;;;;;1.67;1.20;;;;;;;14.83;100.00;96405.78;5038207;28;20045;-62
2021/07/05 05:33:01;;;;;;;1.73;1.30;;;;;;;14.93;100.00;96415.16;5035214;28;20076;-62
2021/07/05 05:35:27;;;;;;;2.80;1.27;;;;;;;15.12;100.00;96408.38;5035316;28;20397;-63
2021/07/05 05:37:55;;;;;;;3.90;1.17;;;;;;;15.82;100.00;96424.84;5043446;28;20493;-63
2021/07/05 05:40:21;;;;;;;3.70;1.02;;;;;;;16.62;96.97;96434.69;5034694;28;20044;-63
2021/07/05 05:42:47;;;;;;;1.58;1.02;;;;;;;17.21;91.50;96435.53;5042337;28;20056;-63
2021/07/05 05:45:13;;;;;;;2.25;0.80;;;;;;;17.26;91.71;96440.63;5041723;28;20040;-58
2021/07/05 05:47:39;;;;;;;1.05;0.80;;;;;;;16.75;94.42;96432.16;5040740;28;20091;-61
2021/07/05 05:50:05;;;;;;;1.27;0.70;;;;;;;16.36;96.90;96433.38;5035861;28;20485;-60
2021/07/05 05:52:31;;;;;;;2.00;0.88;;;;;;;16.12;99.02;96426.16;5035702;28;20493;-61
2021/07/05 05:54:56;;;;;;;2.17;0.85;;;;;;;16.31;97.80;96424.78;5057464;28;20063;-60
2021/07/05 05:57:32;;;;;;;3.90;0.98;;;;;;;16.49;96.95;96427.34;5045654;28;20130;-61
2021/07/05 06:00:01;;;;;;;5.15;1.38;;;;;;;15.96;97.91;96419.19;5040503;28;20041;-61
2021/07/05 06:02:28;;;;;;;2.47;1.10;;;;;;;15.79;99.36;96420.13;5017033;28;20088;-60
2021/07/05 06:04:54;;;;;;;1.90;1.10;;;;;;;15.82;100.00;96413.78;5040696;28;20102;-60
2021/07/05 06:07:20;;;;;;;3.75;1.48;;;;;;;15.94;100.00;96423.56;5032742;28;20036;-60
2021/07/05 06:09:46;;;;;;;3.97;1.35;;;;;;;16.25;98.70;96430.75;5032845;28;20067;-61
2021/07/05 06:12:12;;;;;;;2.65;1.05;;;;;;;16.29;98.95;96422.41;5034862;28;20044;-59
2021/07/05 06:14:37;;;;;;;4.65;2.20;;;;;;;16.16;97.67;96424.91;5024439;28;20088;-60
2021/07/05 06:17:03;;;;;;;2.90;1.05;;;;;;;16.10;98.95;96426.56;5030788;28;20132;-60
2021/07/05 06:19:28;;;;;;;3.53;0.95;;;;;;;16.12;98.58;96429.69;5039034;28;20114;-60
2021/07/05 06:21:54;;;;;;;1.75;1.17;;;;;;;16.21;99.37;96430.00;5037030;28;20416;-63
2021/07/05 06:24:20;;;;;;;2.05;1.40;;;;;;;16.10;99.85;96429.31;5027275;28;20493;-63
2021/07/05 06:26:46;;;;;;;5.30;1.27;;;;;;;16.05;100.00;96425.03;5035621;28;20152;-63
2021/07/05 06:29:12;;;;;;;4.07;1.20;;;;;;;16.11;100.00;96427.34;5030747;28;20040;-63
2021/07/05 06:31:37;;;;;;;2.40;1.15;;;;;;;15.94;100.00;96429.09;5040239;28;20575;-61
2021/07/05 06:34:04;;;;;;;5.30;1.25;;;;;;;15.99;100.00;96420.34;5031520;28;20038;-61
2021/07/05 06:36:30;;;;;;;1.77;1.17;;;;;;;16.14;100.00;96413.50;5038711;28;20049;-60
2021/07/05 06:38:56;;;;;;;6.82;1.38;;;;;;;16.16;100.00;96419.38;5040562;28;20079;-61
2021/07/05 06:41:24;;;;;;;2.97;1.33;;;;;;;16.07;99.86;96430.13;5029474;28;20623;-62
2021/07/05 06:43:51;;;;;;;3.63;1.45;;;;;;;16.64;98.77;96428.75;5034413;28;20453;-62
2021/07/05 06:46:16;;;;;;;2.72;1.17;;;;;;;16.55;99.14;96418.19;5026735;28;20048;-63
2021/07/05 06:48:42;;;;;;;4.20;2.17;;;;;;;16.91;96.32;96417.00;5043290;28;20401;-62
2021/07/05 06:51:07;;;;;;;3.85;1.35;;;;;;;16.67;94.99;96416.06;5033779;28;20464;-62
2021/07/05 06:53:32;;;;;;;3.75;1.30;;;;;;;16.80;96.24;96428.16;5032293;28;20071;-62
2021/07/05 06:55:58;;;;;;;5.25;1.33;;;;;;;17.01;96.00;96432.66;5035291;28;20055;-62
2021/07/05 06:58:23;;;;;;;2.22;1.02;;;;;;;16.84;96.71;96430.91;5034686;28;20052;-62
2021/07/05 07:00:49;;;;;;;5.05;1.20;;;;;;;16.84;96.90;96430.91;5033175;28;20049;-62
2021/07/05 07:03:14;;;;;;;3.95;0.98;;;;;;;16.82;94.38;96423.78;5024575;28;20080;-63
2021/07/05 07:05:40;;;;;;;2.42;1.10;;;;;;;16.95;95.31;96429.56;5021402;28;20052;-63
2021/07/05 07:08:05;;;;;;;2.95;0.90;;;;;;;17.04;92.83;96422.75;5049669;28;20037;-63
2021/07/05 07:10:31;;;;;;;1.92;1.13;;;;;;;17.56;92.01;96408.53;5038743;28;20045;-63
2021/07/05 07:12:56;;;;;;;4.18;1.77;;;;;;;17.53;92.63;96407.38;5022989;28;20041;-64
2021/07/05 07:15:34;;;;;;;3.13;1.13;;;;;;;17.35;91.04;96406.88;5023727;28;20063;-64
2021/07/05 07:20:28;;;;;;;1.60;0.90;;;;;;;18.17;86.61;96417.81;5037212;28;20049;-63
2021/07/05 07:22:53;;;;;;;1.58;0.70;;;;;;;18.07;86.79;96414.03;5043842;28;20413;-63
2021/07/05 07:25:19;;;;;;;4.22;1.05;;;;;;;18.03;86.67;96405.78;5040153;28;20148;-63
2021/07/05 07:27:45;;;;;;;1.83;0.95;;;;;;;17.81;87.34;96405.38;5037283;28;20041;-62
2021/07/05 07:30:12;;;;;;;1.73;0.88;;;;;;;18.44;84.88;96417.72;5031815;28;20051;-62
2021/07/05 07:32:38;;;;;;;4.35;0.95;;;;;;;18.82;81.00;96414.63;5033457;28;20041;-62
2021/07/05 07:35:05;;;;;;;6.82;1.15;;;;;;;18.70;81.50;96413.25;5033349;28;20383;-60
2021/07/05 07:37:32;;;;;;;6.60;1.10;;;;;;;18.11;85.25;96421.09;5027438;28;20045;-61
2021/07/05 07:40:12;;;;;;;4.20;1.00;;;;;;;17.94;84.97;96430.50;5035392;28;20053;-62
2021/07/05 07:42:38;;;;;;;6.18;1.00;;;;;;;18.46;84.26;96423.63;5020953;28;20120;-62
2021/07/05 07:45:04;;;;;;;6.55;1.83;;;;;;;18.81;81.70;96421.34;5029457;28;20184;-60
2021/07/05 07:47:30;;;;;;;1.95;0.90;;;;;;;18.88;81.46;96412.91;5038415;28;20045;-62
2021/07/05 07:49:55;;;;;;;2.30;1.00;;;;;;;18.62;84.48;96406.28;5040604;28;20140;-61
2021/07/05 07:52:21;;;;;;;1.25;0.80;;;;;;;18.83;81.67;96414.19;5030882;28;20040;-63
2021/07/05 07:54:47;;;;;;;4.45;1.00;;;;;;;18.79;80.95;96410.69;5039376;28;20048;-62
2021/07/05 07:57:16;;;;;;;1.13;0.70;;;;;;;19.05;77.88;96414.53;5035375;28;20047;-62
2021/07/05 07:59:43;;;;;;;3.33;0.90;;;;;;;19.49;76.24;96406.78;5031392;28;20042;-61
2021/07/05 08:02:10;;;;;;;5.28;0.88;;;;;;;19.29;74.35;96409.63;5036198;28;20202;-62
2021/07/05 08:04:36;;;;;;;2.42;0.80;;;;;;;18.97;78.73;96407.56;5038981;28;20047;-63
2021/07/05 08:07:03;;;;;;;2.45;0.65;;;;;;;19.43;76.56;96402.97;5031044;28;20057;-62
2021/07/05 08:09:28;;;;;;;1.30;0.73;;;;;;;19.91;75.27;96408.19;5049567;28;20060;-63
2021/07/05 08:11:53;;;;;;;1.35;0.80;;;;;;;20.21;72.03;96415.38;5035073;28;20065;-63
2021/07/05 08:14:19;;;;;;;2.72;0.70;;;;;;;20.11;72.33;96417.19;5023891;28;20114;-62
2021/07/05 08:16:44;;;;;;;1.35;0.77;;;;;;;20.37;71.79;96418.13;5030779;28;20048;-63
2021/07/05 08:19:10;;;;;;;6.03;1.27;;;;;;;20.39;72.01;96415.66;5032500;28;20474;-62
2021/07/05 08:21:37;;;;;;;2.90;1.00;;;;;;;20.57;71.56;96412.41;5043536;28;20616;-63
2021/07/05 08:24:04;;;;;;;1.73;0.70;;;;;;;20.77;69.06;96406.69;5033866;28;20057;-63
2021/07/05 08:26:29;;;;;;;1.80;0.70;;;;;;;20.77;69.20;96406.69;5041014;28;20040;-62
2021/07/05 08:28:55;;;;;;;0.85;0.60;;;;;;;21.29;66.96;96404.78;5042960;28;20052;-62
2021/07/05 08:31:20;;;;;;;2.90;0.75;;;;;;;21.61;65.86;96405.81;5037852;28;20037;-62
2021/07/05 08:33:47;;;;;;;2.22;0.68;;;;;;;21.68;66.59;96402.78;5043551;28;20159;-62
2021/07/05 08:36:12;;;;;;;3.47;1.98;;;;;;;21.74;65.12;96405.78;5037951;28;20058;-63
2021/07/05 08:38:38;;;;;;;1.95;0.95;;;;;;;21.35;64.89;96410.56;5037661;28;20433;-63
2021/07/05 08:41:04;;;;;;;1.95;0.95;;;;;;;21.44;65.73;96413.47;5033309;28;20048;-63
2021/07/05 08:43:30;;;;;;;2.35;1.00;;;;;;;21.63;66.38;96414.50;5038484;28;20171;-63
2021/07/05 08:46:04;;;;;;;4.80;0.93;;;;;;;21.67;66.05;96409.59;5035722;28;20033;-63
2021/07/05 08:48:35;;;;;;;2.22;1.00;;;;;;;21.70;65.94;96408.69;5039104;28;20052;-63
2021/07/05 08:51:02;;;;;;;1.70;0.80;;;;;;;22.13;65.62;96415.63;5034031;28;20049;-63
2021/07/05 08:53:27;;;;;;;1.70;0.73;;;;;;;21.99;64.62;96413.31;5030984;28;20500;-63
2021/07/05 08:55:53;;;;;;;1.13;0.80;;;;;;;22.09;61.84;96411.41;5035349;28;20045;-63
2021/07/05 08:58:18;;;;;;;2.47;1.00;;;;;;;21.58;65.18;96417.84;5021051;28;20037;-63
2021/07/05 09:00:44;;;;;;;2.53;0.80;;;;;;;21.48;65.01;96428.09;5040804;28;20044;-63
2021/07/05 09:03:09;;;;;;;1.52;0.90;;;;;;;21.74;64.17;96412.13;5036573;28;20059;-63
2021/07/05 09:05:35;;;;;;;3.67;0.77;;;;;;;21.85;63.77;96409.00;5026404;28;20114;-64
2021/07/05 09:08:03;;;;;;;3.53;0.82;;;;;;;21.61;64.46;96407.78;5046322;28;20079;-63
2021/07/05 09:10:52;;;;;;;3.25;0.90;;;;;;;21.72;64.33;96402.69;5041524;28;20064;-63
2021/07/05 09:13:23;;;;;;;2.25;0.80;;;;;;;21.39;66.46;96400.09;5028583;28;20095;-62
2021/07/05 09:15:56;;;;;;;3.42;1.27;;;;;;;21.33;65.86;96410.22;5022643;28;20042;-63
2021/07/05 09:18:24;;;;;;;3.70;0.90;;;;;;;21.32;66.88;96412.25;5028127;28;20508;-61
2021/07/05 09:20:50;;;;;;;3.83;1.42;;;;;;;21.51;66.86;96412.50;5041468;28;20098;-63
2021/07/05 09:23:15;;;;;;;3.17;0.90;;;;;;;21.36;66.25;96412.91;5037456;28;20045;-62
2021/07/05 09:25:45;;;;;;;2.53;1.08;;;;;;;21.17;67.12;96413.91;5040095;28;20041;-63
2021/07/05 09:28:11;;;;;;;2.33;1.20;;;;;;;21.26;67.66;96408.44;5035962;28;20044;-63
2021/07/05 09:30:42;;;;;;;2.70;1.10;;;;;;;21.34;65.10;96418.16;5035633;28;20041;-63
2021/07/05 09:33:14;;;;;;;4.10;1.23;;;;;;;21.12;66.12;96412.47;5029505;28;20075;-62
2021/07/05 09:35:40;;;;;;;3.05;1.20;;;;;;;21.14;66.16;96414.78;5034537;28;20045;-63
2021/07/05 09:38:05;;;;;;;2.42;1.15;;;;;;;21.06;66.29;96419.00;5037002;28;20095;-63
2021/07/05 09:40:30;;;;;;;4.65;1.30;;;;;;;20.78;67.85;96422.19;5041215;28;20045;-63
2021/07/05 09:42:56;;;;;;;7.55;1.50;;;;;;;20.55;68.03;96431.53;5038075;28;20048;-62
2021/07/05 09:45:33;;;;;;;4.03;1.40;;;;;;;20.61;67.00;96429.81;5034861;28;20053;-62
2021/07/05 09:48:18;;;;;;;4.20;1.50;;;;;;;20.44;69.84;96431.84;5056951;28;20095;-63
2021/07/05 09:50:46;;;;;;;3.00;1.42;;;;;;;20.60;68.43;96421.88;5038692;28;20497;-63
2021/07/05 09:53:44;;;;;;;3.90;1.20;;;;;;;21.05;66.91;96423.00;5023113;28;20041;-63
2021/07/05 09:56:19;;;;;;;2.55;1.38;;;;;;;21.13;65.79;96424.38;4993977;28;20128;-64
2021/07/05 09:58:45;;;;;;;5.63;1.10;;;;;;;20.61;66.90;96423.47;5033395;28;20425;-64
2021/07/05 10:01:10;;;;;;;2.90;1.40;;;;;;;20.75;66.06;96427.84;5021014;28;20061;-63
2021/07/05 10:03:39;;;;;;;2.13;1.17;;;;;;;20.60;66.53;96422.66;5034705;28;20104;-63
2021/07/05 10:06:19;;;;;;;2.58;1.00;;;;;;;20.71;66.68;96427.97;5031998;28;20044;-63
2021/07/05 10:08:48;;;;;;;2.22;0.90;;;;;;;20.60;66.76;96422.66;5034533;28;20056;-63
2021/07/05 10:11:14;;;;;;;2.78;0.90;;;;;;;20.70;66.80;96420.81;5029730;28;20064;-63
2021/07/05 10:13:40;;;;;;;2.67;0.90;;;;;;;20.59;66.53;96411.97;5027651;28;20045;-62
2021/07/05 10:16:13;;;;;;;1.60;0.80;;;;;;;20.65;65.74;96410.22;5018987;28;20124;-62
2021/07/05 10:18:40;;;;;;;1.83;0.93;;;;;;;20.62;65.64;96409.13;5024780;28;20770;-63
2021/07/05 10:21:06;;;;;;;1.30;0.80;;;;;;;20.64;65.52;96422.59;5035825;28;20044;-62
2021/07/05 10:23:34;;;;;;;1.70;1.02;;;;;;;20.75;64.33;96419.50;5032742;28;20033;-64
2021/07/05 10:25:59;;;;;;;4.88;0.80;;;;;;;20.47;65.42;96423.81;5041166;28;20528;-62
2021/07/05 10:28:25;;;;;;;2.90;0.80;;;;;;;20.55;63.97;96427.97;5028874;28;20057;-63
2021/07/05 10:30:52;;;;;;;1.52;0.70;;;;;;;20.28;64.71;96419.97;5035669;28;20049;-63
2021/07/05 10:33:18;;;;;;;1.85;0.73;;;;;;;20.19;63.90;96426.16;5018646;28;20106;-63
2021/07/05 10:35:51;;;;;;;1.13;0.70;;;;;;;20.42;63.51;96419.59;5027799;28;20053;-63
2021/07/05 10:38:36;;;;;;;2.00;0.93;;;;;;;20.52;63.27;96421.28;5028872;28;20087;-64
2021/07/05 10:41:10;;;;;;;1.20;0.75;;;;;;;20.76;62.77;96423.84;5026314;28;20180;-62
2021/07/05 10:43:53;;;;;;;2.67;1.38;;;;;;;20.67;60.42;96429.25;5026626;28;20389;-65
2021/07/05 10:46:41;;;;;;;3.28;1.10;;;;;;;20.86;61.21;96422.75;5032280;28;20503;-62
2021/07/05 10:49:28;;;;;;;2.70;0.95;;;;;;;21.04;59.01;96425.03;5030369;28;20095;-61
2021/07/05 10:51:56;;;;;;;1.58;0.60;;;;;;;21.20;58.45;96427.72;5044636;28;20040;-63
2021/07/05 10:54:49;;;;;;;1.38;0.82;;;;;;;21.28;58.45;96425.47;5036567;28;20069;-62
2021/07/05 10:57:20;;;;;;;2.15;0.95;;;;;;;21.10;58.75;96428.81;5040418;28;20060;-62
2021/07/05 10:59:50;;;;;;;2.03;0.77;;;;;;;20.91;60.36;96430.56;5023603;28;20121;-63
2021/07/05 11:02:39;;;;;;;1.17;0.88;;;;;;;20.70;61.01;96422.81;5034015;28;20099;-62
2021/07/05 11:05:28;;;;;;;1.15;0.80;;;;;;;20.40;62.35;96433.13;5026941;28;20052;-62
2021/07/05 11:07:55;;;;;;;2.85;1.13;;;;;;;20.59;62.77;96428.66;5035201;28;20067;-63
2021/07/05 11:10:29;;;;;;;1.65;0.80;;;;;;;20.60;61.10;96425.44;5033496;28;20045;-63
2021/07/05 11:13:04;;;;;;;5.70;1.40;;;;;;;20.67;61.74;96427.28;5034558;28;20453;-63
2021/07/05 11:15:58;;;;;;;2.53;1.13;;;;;;;21.12;58.41;96431.94;5038527;28;20041;-62
2021/07/05 11:18:38;;;;;;;3.00;1.05;;;;;;;21.45;59.70;96423.41;5032320;28;20041;-63
2021/07/05 11:21:26;;;;;;;1.17;0.80;;;;;;;20.93;60.34;96421.78;5034851;28;20056;-62
2021/07/05 11:23:55;;;;;;;1.45;0.55;;;;;;;20.01;65.95;96418.28;5033624;28;20053;-62
2021/07/05 11:26:28;;;;;;;1.77;0.80;;;;;;;19.45;65.75;96419.97;5034031;28;20037;-62
2021/07/05 11:29:16;;;;;;;3.05;0.80;;;;;;;19.59;65.72;96421.66;5032325;28;20049;-63
2021/07/05 11:31:55;;;;;;;5.32;1.05;;;;;;;19.42;65.65;96420.06;5030926;28;20064;-62
2021/07/05 11:34:46;;;;;;;3.45;0.90;;;;;;;20.05;63.56;96413.41;5039618;28;20044;-63